createdAt,value
2022-09-22T00:01:53.408Z,90.97
2022-09-22T00:04:21.892Z,90.71
2022-09-22T00:06:52.193Z,90.87
2022-09-22T00:09:22.522Z,92.08
2022-09-22T00:11:53.984Z,92.09
2022-09-22T00:14:26.662Z,92.02
2022-09-22T00:17:01.112Z,91.76
2022-09-22T00:19:31.948Z,92.08
2022-09-22T00:22:00.928Z,91.95
2022-09-22T00:24:31.028Z,91.75
2022-09-22T00:27:01.124Z,92.01
2022-09-22T00:29:31.623Z,91.64
2022-09-22T00:32:07.173Z,91.37
2022-09-22T00:34:36.147Z,90.84
2022-09-22T00:37:04.542Z,91.98
2022-09-22T00:39:32.873Z,91.98
2022-09-22T00:42:01.262Z,91.75
2022-09-22T00:44:37.700Z,92.38
2022-09-22T00:47:32.649Z,93.06
2022-09-22T00:50:08.934Z,93.14
2022-09-22T00:52:43.338Z,92.88
2022-09-22T00:55:16.970Z,92.92
2022-09-22T00:57:47.590Z,93.35
2022-09-22T01:00:16.866Z,93.28
2022-09-22T01:02:49.736Z,93.31
2022-09-22T01:05:19.078Z,93.04
2022-09-22T01:07:49.560Z,93.54
2022-09-22T01:10:18.646Z,93.42
2022-09-22T01:13:01.450Z,94.01
2022-09-22T01:15:39.085Z,94.40
2022-09-22T01:18:23.462Z,94.10
2022-09-22T01:21:24.938Z,93.53
2022-09-22T01:24:27.149Z,93.99
2022-09-22T01:27:40.199Z,94.27
2022-09-22T01:30:21.884Z,93.92
2022-09-22T01:33:26.821Z,93.93
2022-09-22T01:36:15.002Z,93.92
2022-09-22T01:38:57.622Z,94.07
2022-09-22T01:41:48.887Z,94.51
2022-09-22T01:44:25.859Z,94.73
2022-09-22T01:47:02.403Z,94.44
2022-09-22T01:49:36.732Z,94.47
2022-09-22T01:52:11.554Z,94.21
2022-09-22T01:54:45.734Z,93.69
2022-09-22T01:57:20.052Z,94.56
2022-09-22T01:59:52.746Z,94.19
2022-09-22T02:02:28.118Z,94.38
2022-09-22T02:05:02.363Z,95.14
2022-09-22T02:07:35.656Z,94.72
2022-09-22T02:10:10.184Z,94.63
2022-09-22T02:12:39.512Z,94.25
2022-09-22T02:15:30.112Z,94.10
2022-09-22T02:18:07.669Z,94.63
2022-09-22T02:20:36.730Z,95.98
2022-09-22T02:23:05.131Z,97.62
2022-09-22T02:25:34.174Z,99.16
2022-09-22T02:28:03.766Z,94.87
2022-09-22T02:30:33.243Z,94.10
2022-09-22T02:33:04.160Z,93.75
2022-09-22T02:35:37.982Z,91.16
2022-09-22T02:38:13.266Z,91.28
2022-09-22T02:40:48.214Z,91.06
2022-09-22T02:43:26.828Z,90.46
2022-09-22T02:46:01.272Z,89.54
2022-09-22T02:48:38.116Z,90.60
2022-09-22T02:51:07.051Z,91.73
2022-09-22T02:53:37.621Z,92.67
2022-09-22T02:56:06.582Z,93.17
2022-09-22T02:58:34.966Z,93.19
2022-09-22T03:01:03.541Z,93.92
2022-09-22T03:03:34.043Z,94.25
2022-09-22T03:06:02.481Z,94.71
2022-09-22T03:08:30.874Z,94.38
2022-09-22T03:10:59.214Z,94.39
2022-09-22T03:13:27.551Z,95.33
2022-09-22T03:15:56.055Z,95.32
2022-09-22T03:18:24.401Z,95.45
2022-09-22T03:20:54.183Z,95.34
2022-09-22T03:23:22.515Z,95.54
2022-09-22T03:25:50.960Z,96.74
2022-09-22T03:28:19.359Z,97.25
2022-09-22T03:30:48.038Z,96.94
2022-09-22T03:33:16.535Z,97.05
2022-09-22T03:35:44.960Z,97.26
2022-09-22T03:38:14.777Z,97.18
2022-09-22T03:40:43.425Z,96.83
2022-09-22T03:43:16.483Z,96.79
2022-09-22T03:45:45.974Z,97.21
2022-09-22T03:48:14.414Z,97.27
2022-09-22T03:50:42.825Z,97.74
2022-09-22T03:53:11.241Z,98.50
2022-09-22T03:55:41.025Z,99.67
2022-09-22T03:58:09.633Z,100.00
2022-09-22T04:00:38.546Z,99.99
2022-09-22T04:03:07.043Z,99.89
2022-09-22T04:05:35.520Z,99.25
2022-09-22T04:08:03.885Z,98.94
2022-09-22T04:10:32.427Z,98.93
2022-09-22T04:13:02.253Z,98.86
2022-09-22T04:15:30.661Z,98.57
2022-09-22T04:17:59.160Z,98.90
2022-09-22T04:20:27.649Z,98.87
2022-09-22T04:22:56.050Z,98.96
2022-09-22T04:25:24.600Z,99.57
2022-09-22T04:27:52.965Z,100.00
2022-09-22T04:30:23.817Z,99.90
2022-09-22T04:32:52.283Z,99.33
2022-09-22T04:35:20.656Z,99.11
2022-09-22T04:37:49.160Z,98.16
2022-09-22T04:40:18.342Z,97.83
2022-09-22T04:42:47.371Z,97.68
2022-09-22T04:45:16.639Z,97.46
2022-09-22T04:47:48.917Z,97.69
2022-09-22T04:50:18.838Z,98.77
2022-09-22T04:52:48.280Z,98.76
2022-09-22T04:55:17.157Z,98.10
2022-09-22T04:57:49.604Z,98.46
2022-09-22T05:00:19.373Z,97.98
2022-09-22T05:02:49.910Z,97.85
2022-09-22T05:05:19.002Z,97.69
2022-09-22T05:07:49.567Z,97.63
2022-09-22T05:10:19.100Z,98.13
2022-09-22T05:12:48.304Z,97.90
2022-09-22T05:15:17.008Z,98.60
2022-09-22T05:17:51.874Z,98.54
2022-09-22T05:20:21.522Z,98.77
2022-09-22T05:22:50.248Z,98.68
2022-09-22T05:25:20.882Z,99.46
2022-09-22T05:27:51.199Z,98.66
2022-09-22T05:30:21.655Z,98.63
2022-09-22T05:32:51.943Z,97.88
2022-09-22T05:35:23.254Z,97.26
2022-09-22T05:37:53.858Z,96.90
2022-09-22T05:40:24.107Z,96.63
2022-09-22T05:42:54.556Z,96.61
2022-09-22T05:45:23.146Z,96.32
2022-09-22T05:47:53.464Z,95.62
2022-09-22T05:50:23.750Z,95.74
2022-09-22T05:52:52.332Z,95.98
2022-09-22T05:55:20.770Z,95.81
2022-09-22T05:57:49.320Z,96.34
2022-09-22T06:00:17.945Z,95.84
2022-09-22T06:02:46.471Z,95.18
2022-09-22T06:05:18.970Z,95.10
2022-09-22T06:07:49.163Z,94.76
2022-09-22T06:10:17.891Z,94.44
2022-09-22T06:12:46.371Z,93.92
2022-09-22T06:15:15.125Z,94.10
2022-09-22T06:17:43.608Z,94.15
2022-09-22T06:20:12.033Z,94.67
2022-09-22T06:22:41.940Z,94.11
2022-09-22T06:25:10.950Z,94.63
2022-09-22T06:27:40.216Z,94.10
2022-09-22T06:30:11.189Z,93.75
2022-09-22T06:32:40.277Z,93.61
2022-09-22T06:35:09.701Z,93.43
2022-09-22T06:37:40.331Z,93.40
2022-09-22T06:40:15.295Z,92.68
2022-09-22T06:42:46.502Z,92.15
2022-09-22T06:45:16.170Z,92.35
2022-09-22T06:47:44.641Z,92.29
2022-09-22T06:50:13.067Z,91.78
2022-09-22T06:52:41.488Z,91.79
2022-09-22T06:55:14.260Z,91.50
2022-09-22T06:57:42.656Z,91.29
2022-09-22T07:00:14.480Z,90.93
2022-09-22T07:02:43.026Z,90.17
2022-09-22T07:05:11.853Z,90.01
2022-09-22T07:07:40.320Z,89.47
2022-09-22T07:10:11.723Z,89.19
2022-09-22T07:12:40.160Z,88.67
2022-09-22T07:15:09.966Z,87.92
2022-09-22T07:17:39.422Z,87.64
2022-09-22T07:20:09.706Z,86.21
2022-09-22T07:22:39.678Z,85.61
2022-09-22T07:25:10.509Z,85.61
2022-09-22T07:27:39.205Z,84.79
2022-09-22T07:30:10.284Z,84.33
2022-09-22T07:32:38.795Z,82.85
2022-09-22T07:35:08.356Z,77.36
2022-09-22T07:37:40.286Z,71.35
2022-09-22T07:40:10.943Z,68.26
2022-09-22T07:42:39.419Z,64.03
2022-09-22T07:45:15.395Z,62.93
2022-09-22T07:48:02.960Z,61.61
2022-09-22T07:50:32.073Z,61.84
2022-09-22T07:53:00.628Z,60.80
2022-09-22T07:55:30.544Z,58.67
2022-09-22T07:58:01.537Z,58.45
2022-09-22T08:00:33.174Z,58.61
2022-09-22T08:03:02.243Z,58.00
2022-09-22T08:05:31.120Z,56.73
2022-09-22T08:08:02.263Z,54.21
2022-09-22T08:10:33.911Z,53.43
2022-09-22T08:13:04.457Z,53.01
2022-09-22T08:15:32.942Z,52.84
2022-09-22T08:18:03.845Z,53.07
2022-09-22T08:20:32.350Z,54.83
2022-09-22T08:23:06.757Z,52.58
2022-09-22T08:25:36.604Z,53.48
2022-09-22T08:28:07.709Z,51.53
2022-09-22T08:30:36.507Z,49.62
2022-09-22T08:33:05.025Z,49.30
2022-09-22T08:35:34.614Z,49.22
2022-09-22T08:38:02.998Z,48.33
2022-09-22T08:40:31.524Z,46.94
2022-09-22T08:43:04.384Z,47.92
2022-09-22T08:45:37.288Z,49.23
2022-09-22T08:48:34.981Z,48.59
2022-09-22T08:51:29.630Z,48.96
2022-09-22T08:54:02.550Z,48.24
2022-09-22T08:56:42.467Z,46.31
2022-09-22T08:59:20.185Z,47.98
2022-09-22T09:02:36.701Z,47.10
2022-09-22T09:06:01.407Z,47.00
2022-09-22T09:09:05.357Z,49.63
2022-09-22T09:12:14.640Z,47.26
2022-09-22T09:15:38.232Z,46.28
2022-09-22T09:18:16.086Z,46.18
2022-09-22T09:20:48.345Z,44.74
2022-09-22T09:23:20.774Z,42.66
2022-09-22T09:25:54.363Z,42.16
2022-09-22T09:28:29.238Z,43.39
2022-09-22T09:31:10.666Z,43.45
2022-09-22T09:33:45.904Z,42.31
2022-09-22T09:36:20.620Z,41.51
2022-09-22T09:38:53.791Z,42.21
2022-09-22T09:41:26.330Z,42.65
2022-09-22T09:43:56.408Z,42.61
2022-09-22T09:46:42.002Z,42.20
2022-09-22T09:49:14.999Z,40.58
2022-09-22T09:51:46.836Z,40.51
2022-09-22T09:54:18.061Z,40.23
2022-09-22T09:57:10.177Z,39.65
2022-09-22T09:59:58.461Z,39.99
2022-09-22T10:02:31.136Z,40.70
2022-09-22T10:05:04.527Z,41.21
2022-09-22T10:07:42.094Z,42.55
2022-09-22T10:10:35.527Z,42.87
2022-09-22T10:13:34.363Z,40.30
2022-09-22T10:16:08.149Z,39.57
2022-09-22T10:18:40.763Z,38.29
2022-09-22T10:21:16.482Z,39.44
2022-09-22T10:23:46.949Z,39.14
2022-09-22T10:26:20.097Z,39.03
2022-09-22T10:29:18.201Z,39.31
2022-09-22T10:32:14.588Z,37.96
2022-09-22T10:34:47.345Z,37.80
2022-09-22T10:37:18.903Z,38.56
2022-09-22T10:39:50.256Z,36.74
2022-09-22T10:42:34.294Z,36.99
2022-09-22T10:45:07.066Z,37.67
2022-09-22T10:47:53.042Z,37.69
2022-09-22T10:50:55.389Z,36.91
2022-09-22T10:53:51.365Z,38.72
2022-09-22T10:56:30.747Z,39.86
2022-09-22T10:59:32.583Z,38.81
2022-09-22T11:02:24.007Z,37.91
2022-09-22T11:05:11.282Z,36.79
2022-09-22T11:08:23.721Z,37.84
2022-09-22T11:11:18.398Z,37.75
2022-09-22T11:14:01.263Z,38.61
2022-09-22T11:16:59.003Z,38.59
2022-09-22T11:19:43.984Z,37.52
2022-09-22T11:22:36.502Z,38.88
2022-09-22T11:25:23.832Z,38.50
2022-09-22T11:28:14.499Z,37.92
2022-09-22T11:30:47.305Z,37.12
2022-09-22T11:33:54.884Z,36.68
2022-09-22T11:36:38.562Z,36.79
2022-09-22T11:39:21.089Z,34.59
2022-09-22T11:42:07.965Z,35.86
2022-09-22T11:44:40.497Z,36.42
2022-09-22T11:47:26.911Z,36.37
2022-09-22T11:50:23.361Z,36.01
2022-09-22T11:53:13.116Z,36.36
2022-09-22T11:55:50.004Z,35.93
2022-09-22T11:58:22.762Z,36.36
2022-09-22T12:00:56.733Z,35.77
2022-09-22T12:03:29.149Z,35.61
2022-09-22T12:06:03.336Z,35.20
2022-09-22T12:08:36.943Z,36.35
2022-09-22T12:11:09.073Z,36.01
2022-09-22T12:13:44.315Z,35.46
2022-09-22T12:16:20.914Z,34.74
2022-09-22T12:18:55.491Z,36.04
2022-09-22T12:21:42.888Z,36.31
2022-09-22T12:24:13.465Z,36.62
2022-09-22T12:26:44.974Z,35.15
2022-09-22T12:29:27.811Z,34.15
2022-09-22T12:31:59.034Z,33.00
2022-09-22T12:34:31.976Z,33.04
2022-09-22T12:37:12.833Z,34.49
2022-09-22T12:39:43.942Z,35.25
2022-09-22T12:42:23.171Z,35.32
2022-09-22T12:44:56.610Z,34.73
2022-09-22T12:47:33.498Z,34.17
2022-09-22T12:50:06.630Z,34.01
2022-09-22T12:53:02.641Z,34.92
2022-09-22T12:55:38.448Z,34.81
2022-09-22T12:58:43.755Z,34.78
2022-09-22T13:01:33.506Z,34.80
2022-09-22T13:04:13.917Z,35.83
2022-09-22T13:07:00.618Z,35.38
2022-09-22T13:09:31.805Z,37.40
2022-09-22T13:12:27.052Z,37.97
2022-09-22T13:15:20.648Z,36.78
2022-09-22T13:17:51.099Z,36.04
2022-09-22T13:20:24.901Z,37.22
2022-09-22T13:22:56.619Z,37.39
2022-09-22T13:25:28.825Z,37.04
2022-09-22T13:28:16.484Z,37.11
2022-09-22T13:30:48.877Z,36.75
2022-09-22T13:33:22.791Z,36.85
2022-09-22T13:36:00.541Z,37.13
2022-09-22T13:38:30.338Z,36.72
2022-09-22T13:40:59.079Z,35.27
2022-09-22T13:43:33.389Z,36.17
2022-09-22T13:46:04.469Z,36.05
2022-09-22T13:48:37.134Z,36.92
2022-09-22T13:51:09.243Z,37.30
2022-09-22T13:53:39.055Z,37.36
2022-09-22T13:56:16.923Z,37.20
2022-09-22T13:58:50.731Z,37.38
2022-09-22T14:01:24.107Z,37.40
2022-09-22T14:03:54.147Z,37.43
2022-09-22T14:06:25.149Z,36.94
2022-09-22T14:08:55.102Z,38.13
2022-09-22T14:11:26.038Z,37.55
2022-09-22T14:14:02.727Z,37.54
2022-09-22T14:16:38.474Z,38.43
2022-09-22T14:19:13.820Z,37.29
2022-09-22T14:21:49.279Z,37.03
2022-09-22T14:24:17.927Z,37.24
2022-09-22T14:26:48.772Z,37.13
2022-09-22T14:29:21.362Z,38.20
2022-09-22T14:31:55.414Z,36.46
2022-09-22T14:34:31.197Z,37.54
2022-09-22T14:37:02.335Z,37.18
2022-09-22T14:39:34.217Z,37.44
2022-09-22T14:42:12.055Z,37.28
2022-09-22T14:44:46.161Z,37.84
2022-09-22T14:47:28.840Z,36.53
2022-09-22T14:50:20.110Z,37.23
2022-09-22T14:52:55.850Z,37.04
2022-09-22T14:55:32.843Z,36.93
2022-09-22T14:58:06.653Z,37.80
2022-09-22T15:00:53.665Z,37.54
2022-09-22T15:03:28.161Z,36.78
2022-09-22T15:05:57.041Z,37.23
2022-09-22T15:08:28.850Z,36.63
2022-09-22T15:10:59.741Z,37.23
2022-09-22T15:13:33.241Z,37.56
2022-09-22T15:16:01.704Z,36.99
2022-09-22T15:18:31.526Z,37.74
2022-09-22T15:21:06.817Z,36.91
2022-09-22T15:23:41.059Z,37.08
2022-09-22T15:26:17.876Z,36.40
2022-09-22T15:28:47.737Z,36.04
2022-09-22T15:31:22.480Z,38.29
2022-09-22T15:33:52.571Z,36.10
2022-09-22T15:36:23.026Z,36.28
2022-09-22T15:38:53.128Z,37.68
2022-09-22T15:41:21.499Z,36.59
2022-09-22T15:43:50.003Z,36.78
2022-09-22T15:46:31.542Z,38.00
2022-09-22T15:49:05.586Z,37.82
2022-09-22T15:51:34.013Z,36.69
2022-09-22T15:54:02.624Z,37.24
2022-09-22T15:56:31.884Z,36.65
2022-09-22T15:59:01.898Z,36.76
2022-09-22T16:01:30.604Z,37.30
2022-09-22T16:04:00.277Z,36.58
2022-09-22T16:06:30.366Z,36.99
2022-09-22T16:08:58.783Z,37.26
2022-09-22T16:11:31.870Z,37.39
2022-09-22T16:14:03.788Z,37.77
2022-09-22T16:16:34.027Z,37.06
2022-09-22T16:19:03.422Z,37.33
2022-09-22T16:21:35.646Z,37.56
2022-09-22T16:24:08.177Z,36.95
2022-09-22T16:26:38.337Z,37.22
2022-09-22T16:29:08.158Z,37.80
2022-09-22T16:31:37.191Z,37.50
2022-09-22T16:34:07.859Z,37.66
2022-09-22T16:36:39.822Z,38.18
2022-09-22T16:39:08.427Z,38.15
2022-09-22T16:41:37.775Z,38.32
2022-09-22T16:44:06.373Z,38.35
2022-09-22T16:46:35.100Z,38.81
2022-09-22T16:49:07.581Z,38.67
2022-09-22T16:51:40.888Z,39.54
2022-09-22T16:54:13.233Z,38.65
2022-09-22T16:56:44.321Z,38.83
2022-09-22T16:59:15.270Z,39.09
2022-09-22T17:01:44.738Z,39.41
2022-09-22T17:04:16.756Z,39.45
2022-09-22T17:06:47.290Z,39.94
2022-09-22T17:09:16.688Z,39.64
2022-09-22T17:11:49.117Z,40.18
2022-09-22T17:14:21.162Z,40.47
2022-09-22T17:16:52.040Z,40.55
2022-09-22T17:19:22.961Z,40.69
2022-09-22T17:21:55.178Z,40.94
2022-09-22T17:24:24.960Z,41.25
2022-09-22T17:26:55.300Z,41.10
2022-09-22T17:29:26.466Z,41.69
2022-09-22T17:31:57.597Z,41.98
2022-09-22T17:34:28.468Z,42.31
2022-09-22T17:36:58.948Z,42.41
2022-09-22T17:39:28.998Z,42.71
2022-09-22T17:41:57.594Z,42.98
2022-09-22T17:44:28.826Z,43.15
2022-09-22T17:47:15.148Z,43.34
2022-09-22T17:50:01.126Z,43.59
2022-09-22T17:52:48.427Z,44.32
2022-09-22T17:55:22.705Z,44.35
2022-09-22T17:57:52.663Z,44.18
2022-09-22T18:00:23.888Z,44.59
2022-09-22T18:02:54.284Z,44.88
2022-09-22T18:05:26.872Z,45.28
2022-09-22T18:07:58.609Z,45.56
2022-09-22T18:10:34.002Z,45.88
2022-09-22T18:13:04.344Z,46.52
2022-09-22T18:15:32.812Z,46.18
2022-09-22T18:18:01.340Z,46.83
2022-09-22T18:20:29.805Z,46.75
2022-09-22T18:23:00.275Z,47.20
2022-09-22T18:25:29.000Z,47.51
2022-09-22T18:27:57.861Z,47.77
2022-09-22T18:30:26.553Z,47.94
2022-09-22T18:32:55.011Z,47.95
2022-09-22T18:35:24.166Z,48.00
2022-09-22T18:37:52.763Z,48.52
2022-09-22T18:40:22.599Z,48.92
2022-09-22T18:42:51.011Z,49.28
2022-09-22T18:45:19.510Z,49.62
2022-09-22T18:47:47.855Z,49.73
2022-09-22T18:50:16.436Z,50.15
2022-09-22T18:52:46.389Z,50.09
2022-09-22T18:55:18.828Z,50.58
2022-09-22T18:57:48.585Z,50.68
2022-09-22T19:00:21.153Z,51.22
2022-09-22T19:02:50.441Z,51.42
2022-09-22T19:05:19.447Z,51.85
2022-09-22T19:07:48.390Z,52.17
2022-09-22T19:10:22.033Z,52.27
2022-09-22T19:12:52.015Z,52.83
2022-09-22T19:15:21.182Z,52.90
2022-09-22T19:17:50.612Z,53.03
2022-09-22T19:20:22.561Z,52.76
2022-09-22T19:22:52.408Z,53.10
2022-09-22T19:25:22.397Z,53.36
2022-09-22T19:27:53.441Z,53.50
2022-09-22T19:30:24.965Z,53.79
2022-09-22T19:32:55.557Z,54.33
2022-09-22T19:35:24.062Z,54.10
2022-09-22T19:37:52.911Z,54.19
2022-09-22T19:40:24.853Z,54.59
2022-09-22T19:42:55.783Z,54.80
2022-09-22T19:45:26.223Z,55.31
2022-09-22T19:47:56.962Z,55.32
2022-09-22T19:50:26.007Z,55.41
2022-09-22T19:52:54.339Z,55.73
2022-09-22T19:55:22.771Z,55.88
2022-09-22T19:57:52.360Z,56.06
2022-09-22T20:00:26.228Z,56.37
2022-09-22T20:02:58.474Z,56.78
2022-09-22T20:05:31.613Z,57.21
2022-09-22T20:08:01.454Z,57.41
2022-09-22T20:10:31.247Z,57.58
2022-09-22T20:12:59.634Z,57.65
2022-09-22T20:15:29.509Z,57.95
2022-09-22T20:17:57.997Z,58.43
2022-09-22T20:20:28.815Z,58.57
2022-09-22T20:23:00.485Z,58.83
2022-09-22T20:25:32.388Z,59.00
2022-09-22T20:28:00.787Z,59.52
2022-09-22T20:30:30.586Z,59.45
2022-09-22T20:32:59.262Z,59.85
2022-09-22T20:35:27.821Z,60.06
2022-09-22T20:37:59.213Z,60.35
2022-09-22T20:40:29.117Z,60.44
2022-09-22T20:42:58.067Z,60.76
2022-09-22T20:45:27.267Z,60.91
2022-09-22T20:47:57.163Z,61.22
2022-09-22T20:50:25.837Z,61.12
2022-09-22T20:52:55.455Z,61.28
2022-09-22T20:55:24.088Z,61.34
2022-09-22T20:57:52.516Z,61.75
2022-09-22T21:00:21.054Z,62.06
2022-09-22T21:02:49.750Z,62.56
2022-09-22T21:05:19.818Z,63.06
2022-09-22T21:07:48.273Z,63.38
2022-09-22T21:10:34.044Z,63.49
2022-09-22T21:13:03.372Z,64.40
2022-09-22T21:15:32.070Z,64.38
2022-09-22T21:18:00.466Z,64.88
2022-09-22T21:20:30.225Z,65.11
2022-09-22T21:22:58.605Z,65.73
2022-09-22T21:25:26.904Z,66.53
2022-09-22T21:27:55.293Z,66.46
2022-09-22T21:30:24.373Z,66.65
2022-09-22T21:32:52.839Z,66.71
2022-09-22T21:35:23.892Z,67.45
2022-09-22T21:37:56.224Z,67.58
2022-09-22T21:40:24.964Z,67.93
2022-09-22T21:42:53.327Z,68.25
2022-09-22T21:45:22.019Z,68.60
2022-09-22T21:47:51.930Z,68.53
2022-09-22T21:50:24.348Z,68.93
2022-09-22T21:52:54.044Z,68.90
2022-09-22T21:55:22.723Z,69.18
2022-09-22T21:57:54.024Z,69.27
2022-09-22T22:00:48.003Z,69.41
2022-09-22T22:03:28.736Z,69.65
2022-09-22T22:06:02.505Z,70.06
2022-09-22T22:08:36.900Z,69.54
2022-09-22T22:11:08.618Z,69.91
2022-09-22T22:13:39.413Z,70.18
2022-09-22T22:16:10.168Z,70.02
2022-09-22T22:18:39.702Z,70.02
2022-09-22T22:21:11.946Z,70.54
2022-09-22T22:23:44.705Z,70.46
2022-09-22T22:26:16.327Z,70.11
2022-09-22T22:28:45.788Z,70.21
2022-09-22T22:31:17.537Z,70.21
2022-09-22T22:33:47.098Z,70.12
2022-09-22T22:36:18.582Z,70.44
2022-09-22T22:38:48.324Z,69.90
2022-09-22T22:41:18.191Z,69.92
2022-09-22T22:43:47.943Z,70.04
2022-09-22T22:46:18.936Z,70.29
2022-09-22T22:48:48.974Z,70.43
2022-09-22T22:51:20.325Z,70.22
2022-09-22T22:53:50.982Z,70.06
2022-09-22T22:56:21.752Z,69.99
2022-09-22T22:58:51.509Z,70.31
2022-09-22T23:01:22.728Z,70.19
2022-09-22T23:03:53.577Z,70.12
2022-09-22T23:06:24.781Z,70.19
2022-09-22T23:08:55.676Z,70.31
2022-09-22T23:11:27.290Z,70.21
2022-09-22T23:14:03.369Z,70.04
2022-09-22T23:16:34.551Z,70.01
2022-09-22T23:19:07.747Z,70.34
2022-09-22T23:21:37.631Z,70.42
2022-09-22T23:24:09.030Z,70.02
2022-09-22T23:26:38.407Z,70.31
2022-09-22T23:29:07.078Z,70.22
2022-09-22T23:31:35.703Z,70.86
2022-09-22T23:34:04.174Z,70.53
2022-09-22T23:36:32.770Z,70.64
2022-09-22T23:39:03.798Z,70.94
2022-09-22T23:41:36.966Z,71.00
2022-09-22T23:44:06.957Z,71.42
2022-09-22T23:46:37.568Z,70.92
2022-09-22T23:49:06.863Z,71.33
2022-09-22T23:51:35.405Z,71.29
2022-09-22T23:54:03.802Z,71.06
2022-09-22T23:56:33.655Z,71.68
2022-09-22T23:59:02.045Z,71.54
